Time;durP1;ratioP1;P1;durP2;ratioP2;P2;SDS_P1;SDS_P2;PMS_P1;PMS_P2;Temp;Humidity;BMP_temperature;BMP_pressure;BME280_temperature;BME280_humidity;BME280_pressure;Samples;Min_cycle;Max_cycle;Signal;HPM_P1;HPM_P2
2023/08/19 00:00:47;;;;;;;25.65;15.60;;;;;;;21.25;100.00;100907.22;6121485;28;20052;-67
2023/08/19 00:03:42;;;;;;;30.42;15.95;;;;;;;21.29;100.00;100926.53;6119917;28;20035;-67
2023/08/19 00:06:39;;;;;;;29.67;17.67;;;;;;;21.14;100.00;100921.38;6121007;28;20036;-67
2023/08/19 00:09:37;;;;;;;26.00;16.02;;;;;;;21.09;100.00;100915.75;6121128;28;20086;-66
2023/08/19 00:12:32;;;;;;;27.48;14.75;;;;;;;21.16;100.00;100932.78;6121105;28;20063;-67
2023/08/19 00:15:27;;;;;;;25.40;14.53;;;;;;;21.18;100.00;100940.66;6120574;28;20402;-67
2023/08/19 00:18:23;;;;;;;26.77;15.50;;;;;;;21.10;100.00;100930.91;6121028;28;20302;-66
2023/08/19 00:21:18;;;;;;;24.73;15.50;;;;;;;21.19;100.00;100948.56;6126354;28;20513;-67
2023/08/19 00:24:13;;;;;;;22.65;14.32;;;;;;;21.21;100.00;100943.75;6131617;28;20040;-67
2023/08/19 00:27:09;;;;;;;22.83;13.97;;;;;;;21.13;100.00;100929.66;6120868;28;20032;-66
2023/08/19 00:30:05;;;;;;;23.30;14.10;;;;;;;21.25;100.00;100939.59;6121371;28;20112;-66
2023/08/19 00:33:00;;;;;;;22.42;13.98;;;;;;;21.16;100.00;100922.00;6124422;28;20112;-66
2023/08/19 00:35:56;;;;;;;28.65;15.07;;;;;;;21.19;100.00;100932.38;6124301;28;20037;-67
2023/08/19 00:38:51;;;;;;;26.13;13.97;;;;;;;21.20;100.00;100936.69;6125289;28;20517;-66
2023/08/19 00:41:48;;;;;;;27.13;14.98;;;;;;;21.09;100.00;100929.25;6124983;28;20698;-66
2023/08/19 00:44:43;;;;;;;22.85;15.23;;;;;;;21.07;100.00;100939.41;6132378;28;20028;-66
2023/08/19 00:47:39;;;;;;;22.90;13.63;;;;;;;20.94;100.00;100917.00;6127600;28;20030;-67
2023/08/19 00:50:35;;;;;;;24.10;15.55;;;;;;;21.08;100.00;100935.69;6124848;28;20468;-67
2023/08/19 00:53:31;;;;;;;26.08;16.02;;;;;;;20.92;100.00;100924.47;6123160;28;20199;-67
2023/08/19 00:56:27;;;;;;;24.02;14.85;;;;;;;21.00;100.00;100933.19;6123511;28;20047;-66
2023/08/19 00:59:22;;;;;;;23.70;14.30;;;;;;;20.99;100.00;100918.03;6126650;28;20052;-66
2023/08/19 01:02:17;;;;;;;25.00;14.13;;;;;;;21.00;100.00;100932.34;6123487;28;20060;-66
2023/08/19 01:05:12;;;;;;;26.43;14.70;;;;;;;20.95;100.00;100935.69;6123907;28;20291;-67
2023/08/19 01:08:11;;;;;;;24.43;16.63;;;;;;;20.68;100.00;100929.44;6124288;28;20072;-67
2023/08/19 01:11:17;;;;;;;30.48;19.05;;;;;;;20.59;100.00;100941.47;6122984;28;20396;-66
2023/08/19 01:14:51;;;;;;;32.95;20.08;;;;;;;20.40;100.00;100930.66;6122565;28;20071;-66
2023/08/19 01:17:48;;;;;;;34.00;19.65;;;;;;;20.32;100.00;100928.97;6073519;28;20432;-67
2023/08/19 01:20:46;;;;;;;31.98;19.92;;;;;;;20.24;100.00;100915.69;6124283;28;20063;-66
2023/08/19 01:23:43;;;;;;;38.35;21.05;;;;;;;20.16;100.00;100908.59;6121505;28;20029;-67
2023/08/19 01:26:38;;;;;;;35.03;20.98;;;;;;;20.22;100.00;100917.72;6120383;28;20064;-66
2023/08/19 01:29:34;;;;;;;34.10;19.23;;;;;;;20.12;100.00;100901.13;6145117;28;20043;-67
2023/08/19 01:32:29;;;;;;;33.63;18.87;;;;;;;20.09;100.00;100907.75;6123541;28;20032;-67
2023/08/19 01:35:25;;;;;;;36.67;21.05;;;;;;;20.15;100.00;100898.88;6120319;28;20059;-67
2023/08/19 01:38:26;;;;;;;34.70;19.85;;;;;;;20.10;100.00;100898.66;6119109;28;20032;-67
2023/08/19 01:41:26;;;;;;;37.42;20.92;;;;;;;20.04;100.00;100888.69;6122576;28;20102;-66
2023/08/19 01:44:22;;;;;;;;;;;;;;;20.07;100.00;100896.34;6121890;28;20048;-67
2023/08/19 01:47:17;;;;;;;35.58;20.48;;;;;;;19.98;100.00;100904.81;6122309;28;20391;-66
2023/08/19 01:50:12;;;;;;;32.08;19.08;;;;;;;19.88;100.00;100888.22;6123580;28;20048;-67
2023/08/19 01:53:08;;;;;;;32.80;19.53;;;;;;;19.90;100.00;100895.06;6123340;28;20032;-67
2023/08/19 01:56:03;;;;;;;35.10;20.53;;;;;;;19.92;100.00;100901.06;6131575;28;20270;-67
2023/08/19 01:58:59;;;;;;;38.42;21.52;;;;;;;19.90;100.00;100886.16;6123248;28;20035;-67
2023/08/19 02:01:54;;;;;;;34.10;20.35;;;;;;;19.96;100.00;100896.94;6123407;28;20037;-67
2023/08/19 02:04:49;;;;;;;37.97;20.10;;;;;;;20.03;100.00;100888.91;6122279;28;20033;-67
2023/08/19 02:07:45;;;;;;;35.55;21.77;;;;;;;20.02;100.00;100890.75;6123455;28;20082;-67
2023/08/19 02:10:42;;;;;;;40.23;20.93;;;;;;;20.03;100.00;100892.41;6123029;28;20063;-66
2023/08/19 02:13:37;;;;;;;34.70;20.00;;;;;;;19.95;100.00;100878.28;6122239;28;20267;-67
2023/08/19 02:16:33;;;;;;;35.53;21.37;;;;;;;19.97;100.00;100873.56;6122965;28;20043;-66
2023/08/19 02:19:28;;;;;;;33.85;20.60;;;;;;;19.90;100.00;100870.81;6122739;28;20277;-67
2023/08/19 02:22:24;;;;;;;34.67;19.40;;;;;;;19.97;100.00;100881.63;6129990;28;20028;-67
2023/08/19 02:25:19;;;;;;;35.35;19.27;;;;;;;19.96;100.00;100879.97;6121711;28;20480;-67
2023/08/19 02:28:14;;;;;;;35.47;20.80;;;;;;;19.89;100.00;100866.50;6122521;28;20032;-67
2023/08/19 02:31:10;;;;;;;38.73;20.60;;;;;;;19.83;100.00;100866.47;6124794;28;20316;-66
2023/08/19 02:34:05;;;;;;;36.25;21.15;;;;;;;19.81;100.00;100861.25;6121646;28;20429;-66
2023/08/19 02:37:00;;;;;;;40.67;21.92;;;;;;;19.87;100.00;100879.31;6122637;28;20040;-66
2023/08/19 02:39:56;;;;;;;34.53;21.37;;;;;;;19.85;100.00;100883.22;6122545;28;20524;-66
2023/08/19 02:42:51;;;;;;;41.13;21.00;;;;;;;19.74;100.00;100865.81;6122235;28;20523;-66
2023/08/19 02:45:47;;;;;;;34.40;19.63;;;;;;;19.80;100.00;100875.78;6121539;28;20737;-66
2023/08/19 02:48:43;;;;;;;37.58;20.88;;;;;;;19.67;100.00;100862.28;6122197;28;20297;-66
2023/08/19 02:51:38;;;;;;;35.47;19.80;;;;;;;19.70;100.00;100886.09;6122367;28;20028;-67
2023/08/19 02:54:33;;;;;;;35.00;20.67;;;;;;;19.67;100.00;100883.81;6121015;28;20036;-67
2023/08/19 02:57:29;;;;;;;39.35;21.90;;;;;;;19.66;100.00;100892.06;6121330;28;20029;-67
2023/08/19 03:00:24;;;;;;;35.60;21.17;;;;;;;19.56;100.00;100884.38;6122132;28;20055;-67
2023/08/19 03:03:19;;;;;;;40.47;23.25;;;;;;;19.60;100.00;100886.44;6121110;28;20067;-67
2023/08/19 03:06:15;;;;;;;36.43;20.87;;;;;;;19.63;100.00;100887.06;6121821;28;20036;-66
2023/08/19 03:09:10;;;;;;;37.43;21.47;;;;;;;19.49;100.00;100886.19;6122536;28;20130;-66
2023/08/19 03:12:06;;;;;;;40.75;22.45;;;;;;;19.44;100.00;100875.19;6122110;28;20358;-67
2023/08/19 03:15:01;;;;;;;37.88;21.13;;;;;;;19.41;100.00;100878.28;6121064;28;20522;-66
2023/08/19 03:17:56;;;;;;;40.65;22.33;;;;;;;19.35;100.00;100873.69;6121613;28;20031;-66
2023/08/19 03:20:58;;;;;;;39.83;20.43;;;;;;;19.36;100.00;100891.47;6122974;28;20425;-66
2023/08/19 03:23:54;;;;;;;40.88;24.10;;;;;;;19.31;100.00;100881.31;6145324;28;20035;-67
2023/08/19 03:26:49;;;;;;;41.60;21.83;;;;;;;19.30;100.00;100881.50;6145905;28;20522;-67
2023/08/19 03:29:44;;;;;;;41.43;21.67;;;;;;;19.14;100.00;100874.59;6143361;28;20036;-66
2023/08/19 03:32:39;;;;;;;42.63;23.07;;;;;;;19.10;100.00;100873.34;6141905;28;20043;-66
2023/08/19 03:35:35;;;;;;;41.60;21.23;;;;;;;19.07;100.00;100889.84;6124329;28;20035;-66
2023/08/19 03:38:31;;;;;;;41.20;23.33;;;;;;;19.19;100.00;100906.25;6121506;28;20036;-66
2023/08/19 03:41:26;;;;;;;44.97;24.90;;;;;;;19.16;100.00;100888.66;6121375;28;20313;-66
2023/08/19 03:44:21;;;;;;;46.53;25.93;;;;;;;19.14;100.00;100906.84;6120945;28;20036;-66
2023/08/19 03:47:17;;;;;;;40.20;21.70;;;;;;;19.09;100.00;100898.56;6121295;28;20277;-66
2023/08/19 03:50:12;;;;;;;46.50;23.50;;;;;;;19.06;100.00;100919.63;6121537;28;20802;-67
2023/08/19 03:53:07;;;;;;;43.47;24.47;;;;;;;18.98;100.00;100904.47;6121435;28;20033;-66
2023/08/19 03:56:04;;;;;;;42.37;22.03;;;;;;;18.90;100.00;100899.25;6120294;28;20813;-66
2023/08/19 03:58:59;;;;;;;44.55;23.20;;;;;;;18.90;100.00;100907.31;6128187;28;20025;-66
2023/08/19 04:01:54;;;;;;;49.07;23.73;;;;;;;18.82;100.00;100905.59;6121115;28;20032;-66
2023/08/19 04:05:01;;;;;;;50.90;26.17;;;;;;;18.94;100.00;100922.84;6120483;28;20024;-66
2023/08/19 04:07:56;;;;;;;49.13;25.48;;;;;;;18.90;100.00;100915.38;6124147;28;20028;-66
2023/08/19 04:10:52;;;;;;;46.10;24.77;;;;;;;18.89;100.00;100911.00;6126012;28;20041;-66
2023/08/19 04:13:47;;;;;;;42.30;23.02;;;;;;;18.93;100.00;100904.22;6125285;28;20079;-67
2023/08/19 04:16:42;;;;;;;39.20;21.93;;;;;;;18.89;100.00;100909.16;6125045;28;20036;-67
2023/08/19 04:19:38;;;;;;;42.57;22.30;;;;;;;18.97;100.00;100922.44;6125730;28;20089;-67
2023/08/19 04:22:33;;;;;;;39.10;21.80;;;;;;;18.97;100.00;100927.81;6127624;28;20100;-67
2023/08/19 04:25:28;;;;;;;41.27;22.23;;;;;;;18.84;100.00;100908.91;6130194;28;20286;-66
2023/08/19 04:28:24;;;;;;;37.03;20.77;;;;;;;18.93;100.00;100923.03;6125464;28;20028;-67
2023/08/19 04:31:19;;;;;;;37.57;22.23;;;;;;;18.85;100.00;100915.97;6125278;28;20107;-66
2023/08/19 04:34:14;;;;;;;42.05;23.65;;;;;;;18.85;100.00;100926.72;6124597;28;20115;-66
2023/08/19 04:37:10;;;;;;;41.20;23.57;;;;;;;18.81;100.00;100922.75;6125123;28;20036;-66
2023/08/19 04:40:09;;;;;;;42.90;23.33;;;;;;;18.80;100.00;100915.72;6125422;28;20048;-66
2023/08/19 04:43:04;;;;;;;41.90;22.58;;;;;;;18.89;100.00;100932.50;6125051;28;20603;-66
2023/08/19 04:45:59;;;;;;;43.10;24.03;;;;;;;18.77;100.00;100909.91;6124224;28;20032;-66
2023/08/19 04:48:55;;;;;;;43.13;23.10;;;;;;;18.85;100.00;100924.03;6124908;28;20074;-66
2023/08/19 04:51:50;;;;;;;38.33;21.73;;;;;;;18.93;100.00;100931.09;6124617;28;20040;-66
2023/08/19 04:54:45;;;;;;;41.17;23.97;;;;;;;19.00;100.00;100932.81;6124182;28;20452;-66
2023/08/19 04:57:42;;;;;;;40.17;22.30;;;;;;;19.24;100.00;100930.72;6124863;28;20063;-66
2023/08/19 05:00:37;;;;;;;38.20;21.60;;;;;;;19.39;100.00;100918.00;6124648;28;20028;-66
2023/08/19 05:03:32;;;;;;;37.77;21.03;;;;;;;19.65;100.00;100939.66;6123941;28;20036;-66
2023/08/19 05:06:28;;;;;;;34.97;20.33;;;;;;;19.90;100.00;100946.22;6124483;28;20294;-67
2023/08/19 05:09:23;;;;;;;37.93;21.50;;;;;;;19.82;100.00;100932.91;6124490;28;20028;-66
2023/08/19 05:12:18;;;;;;;40.90;21.50;;;;;;;19.88;100.00;100939.38;6124537;28;20040;-66
2023/08/19 05:15:14;;;;;;;37.40;21.17;;;;;;;19.93;100.00;100937.72;6123707;28;20425;-66
2023/08/19 05:18:09;;;;;;;33.83;18.33;;;;;;;20.31;100.00;100948.03;6124324;28;20111;-67
2023/08/19 05:21:04;;;;;;;33.63;18.03;;;;;;;20.42;100.00;100932.09;6124232;28;20036;-67
2023/08/19 05:24:00;;;;;;;33.60;19.20;;;;;;;20.31;100.00;100931.84;6134642;28;20036;-66
2023/08/19 05:26:55;;;;;;;32.13;18.70;;;;;;;20.63;100.00;100939.16;6124240;28;20036;-67
2023/08/19 05:29:50;;;;;;;30.63;19.20;;;;;;;20.76;100.00;100939.19;6124088;28;20051;-67
2023/08/19 05:32:46;;;;;;;31.43;18.13;;;;;;;21.39;100.00;100937.69;6125478;28;20044;-66
2023/08/19 05:35:41;;;;;;;29.47;18.03;;;;;;;21.77;100.00;100945.91;6123231;28;20872;-67
2023/08/19 05:38:36;;;;;;;30.73;17.90;;;;;;;21.29;100.00;100938.16;6124053;28;20025;-67
2023/08/19 05:41:33;;;;;;;30.47;19.47;;;;;;;21.56;100.00;100943.47;6123637;28;20071;-67
2023/08/19 05:44:28;;;;;;;32.20;18.23;;;;;;;21.74;100.00;100930.16;6123250;28;20033;-67
2023/08/19 05:47:23;;;;;;;31.50;19.00;;;;;;;21.78;100.00;100936.75;6129933;28;20056;-67
2023/08/19 05:50:20;;;;;;;29.57;17.70;;;;;;;21.99;100.00;100941.88;6125809;28;20302;-67
2023/08/19 05:53:15;;;;;;;29.98;17.52;;;;;;;22.51;100.00;100949.72;6123632;28;20036;-67
2023/08/19 05:56:11;;;;;;;28.10;17.20;;;;;;;22.56;100.00;100945.53;6122863;28;20048;-67
2023/08/19 05:59:06;;;;;;;25.50;15.85;;;;;;;23.39;100.00;100950.50;6123017;28;20029;-67
2023/08/19 06:02:01;;;;;;;28.90;18.40;;;;;;;22.88;100.00;100939.88;6123204;28;20612;-67
2023/08/19 06:04:57;;;;;;;27.67;17.63;;;;;;;23.29;100.00;100943.91;6122200;28;20159;-67
2023/08/19 06:07:52;;;;;;;27.10;16.43;;;;;;;22.77;100.00;100954.16;6121975;28;20033;-67
2023/08/19 06:11:00;;;;;;;28.80;18.00;;;;;;;22.89;100.00;100951.53;6122836;28;20032;-66
2023/08/19 06:13:55;;;;;;;32.05;20.63;;;;;;;22.54;100.00;100954.69;6122572;28;20023;-66
2023/08/19 06:16:50;;;;;;;30.45;18.88;;;;;;;22.60;100.00;100957.56;6122870;28;20029;-67
2023/08/19 06:19:45;;;;;;;36.83;22.43;;;;;;;22.59;100.00;100947.78;6122333;28;20035;-66
2023/08/19 06:22:41;;;;;;;31.83;16.53;;;;;;;22.76;100.00;100938.13;6126002;28;20028;-66
2023/08/19 06:25:36;;;;;;;35.67;19.37;;;;;;;22.83;100.00;100937.03;6146086;28;20032;-67
2023/08/19 06:28:31;;;;;;;26.70;17.73;;;;;;;23.26;100.00;100950.59;6147004;28;20266;-66
2023/08/19 06:31:27;;;;;;;27.83;18.20;;;;;;;23.47;100.00;100949.38;6146533;28;20399;-67
2023/08/19 06:34:23;;;;;;;27.70;17.77;;;;;;;23.60;100.00;100949.22;6134711;28;20098;-66
2023/08/19 06:37:19;;;;;;;28.45;19.05;;;;;;;23.78;100.00;100946.50;6122412;28;20063;-67
2023/08/19 06:40:18;;;;;;;26.73;17.23;;;;;;;23.87;100.00;100955.16;6121565;28;20029;-66
2023/08/19 06:43:16;;;;;;;27.63;16.80;;;;;;;23.54;100.00;100961.78;6122382;28;20040;-67
2023/08/19 06:46:12;;;;;;;26.40;16.35;;;;;;;23.54;100.00;100967.19;6121860;28;20083;-67
2023/08/19 06:49:08;;;;;;;27.45;18.10;;;;;;;23.28;100.00;100953.91;6122358;28;20029;-66
2023/08/19 06:52:03;;;;;;;25.15;15.30;;;;;;;24.18;100.00;100965.84;6122600;28;20040;-67
2023/08/19 06:54:59;;;;;;;25.27;15.80;;;;;;;24.34;100.00;100951.66;6131877;28;20039;-67
2023/08/19 06:58:03;;;;;;;24.70;16.00;;;;;;;24.56;100.00;100960.94;6145318;28;20028;-67
2023/08/19 07:01:00;;;;;;;24.15;15.77;;;;;;;25.02;100.00;100960.22;6120125;28;20037;-67
2023/08/19 07:03:56;;;;;;;22.98;14.63;;;;;;;24.83;100.00;100961.38;6119887;28;20530;-66
2023/08/19 07:06:51;;;;;;;21.83;14.88;;;;;;;24.76;100.00;100969.56;6121530;28;20028;-67
2023/08/19 07:09:47;;;;;;;21.90;13.88;;;;;;;24.98;100.00;100964.44;6122397;28;20391;-67
2023/08/19 07:12:43;;;;;;;21.30;13.52;;;;;;;25.64;97.51;100955.97;6133699;28;20032;-67
2023/08/19 07:15:42;;;;;;;22.40;13.10;;;;;;;26.09;94.72;100950.63;6120883;28;20056;-67
2023/08/19 07:18:39;;;;;;;18.80;13.07;;;;;;;26.39;91.19;100950.47;6120321;28;20103;-66
2023/08/19 07:21:35;;;;;;;19.40;12.27;;;;;;;25.86;93.68;100940.69;6120809;28;20036;-67
2023/08/19 07:24:31;;;;;;;19.98;12.98;;;;;;;26.04;90.75;100954.09;6158196;27;20146;-67
2023/08/19 07:27:26;;;;;;;21.10;13.60;;;;;;;25.87;90.74;100955.91;6121271;28;20052;-67
2023/08/19 07:30:22;;;;;;;19.80;12.85;;;;;;;25.68;92.49;100943.59;6119408;28;20037;-67
2023/08/19 07:33:18;;;;;;;19.55;12.10;;;;;;;26.06;91.35;100953.03;6120418;28;20441;-67
2023/08/19 07:36:13;;;;;;;16.65;11.50;;;;;;;26.37;89.86;100949.84;6120740;28;20025;-67
2023/08/19 07:39:08;;;;;;;19.50;12.70;;;;;;;26.18;90.31;100962.00;6120103;28;20054;-67
2023/08/19 07:42:04;;;;;;;18.83;12.05;;;;;;;26.32;89.01;100949.75;6124789;28;20539;-67
2023/08/19 07:44:59;;;;;;;16.98;12.60;;;;;;;26.21;89.09;100969.66;6123171;28;20090;-67
2023/08/19 07:47:54;;;;;;;16.33;11.80;;;;;;;26.53;87.81;100959.94;6118059;28;20037;-67
2023/08/19 07:50:50;;;;;;;19.23;11.00;;;;;;;26.58;85.75;100957.31;6125731;28;20029;-67
2023/08/19 07:53:45;;;;;;;14.40;10.48;;;;;;;26.66;84.15;100954.22;6123792;28;20040;-67
2023/08/19 07:56:41;;;;;;;14.40;9.63;;;;;;;27.08;82.00;100950.03;6124136;28;20040;-67
2023/08/19 07:59:37;;;;;;;20.17;11.17;;;;;;;26.91;82.79;100962.00;6119081;28;20278;-67
2023/08/19 08:02:32;;;;;;;15.98;10.98;;;;;;;27.18;82.66;100961.06;6126147;28;20709;-68
2023/08/19 08:05:28;;;;;;;16.90;10.40;;;;;;;27.30;83.58;100963.72;6112923;28;20044;-67
2023/08/19 08:08:23;;;;;;;13.40;9.30;;;;;;;27.63;80.53;100958.22;6125324;28;20025;-66
2023/08/19 08:11:18;;;;;;;15.43;10.27;;;;;;;27.57;79.88;100969.31;6123524;28;20297;-65
2023/08/19 08:14:13;;;;;;;17.20;10.03;;;;;;;27.53;80.44;100946.38;6124940;28;20029;-66
2023/08/19 08:17:09;;;;;;;12.73;9.87;;;;;;;27.85;78.15;100947.34;6125655;28;20038;-66
2023/08/19 08:20:04;;;;;;;12.77;9.33;;;;;;;27.85;77.25;100955.53;6125569;28;20426;-66
2023/08/19 08:23:00;;;;;;;14.23;9.32;;;;;;;27.80;76.51;100958.19;6135484;28;20491;-66
2023/08/19 08:25:55;;;;;;;15.10;9.37;;;;;;;27.87;76.47;100947.91;6124939;28;20094;-66
2023/08/19 08:28:51;;;;;;;14.82;9.30;;;;;;;28.23;76.16;100952.72;6125193;28;20059;-66
2023/08/19 08:31:46;;;;;;;12.23;9.15;;;;;;;28.30;73.82;100928.78;6125783;28;20098;-66
2023/08/19 08:34:41;;;;;;;12.33;8.40;;;;;;;28.75;72.63;100949.44;6124591;28;20036;-66
2023/08/19 08:37:37;;;;;;;15.00;8.57;;;;;;;28.82;72.06;100944.56;6125213;28;20693;-66
2023/08/19 08:40:32;;;;;;;15.20;9.83;;;;;;;28.73;72.17;100940.66;6125255;28;20621;-65
2023/08/19 08:43:29;;;;;;;13.70;9.07;;;;;;;28.67;72.91;100944.47;6123082;28;20020;-66
2023/08/19 08:46:25;;;;;;;13.88;9.55;;;;;;;28.56;72.51;100939.94;6124880;28;20499;-66
2023/08/19 08:49:20;;;;;;;11.65;8.60;;;;;;;28.46;72.48;100935.19;6123604;28;20039;-66
2023/08/19 08:52:16;;;;;;;12.90;8.20;;;;;;;28.14;72.50;100943.34;6123028;28;20032;-66
2023/08/19 08:55:12;;;;;;;12.38;8.80;;;;;;;27.91;72.48;100951.75;6122696;28;20025;-66
2023/08/19 08:58:08;;;;;;;11.18;8.75;;;;;;;27.97;72.32;100939.84;6120511;28;20162;-66
2023/08/19 09:01:03;;;;;;;11.60;7.47;;;;;;;28.02;69.72;100945.38;6124842;28;20025;-66
2023/08/19 09:04:04;;;;;;;11.48;7.03;;;;;;;27.87;68.27;100942.44;6122258;28;20541;-65
2023/08/19 09:07:04;;;;;;;10.45;7.35;;;;;;;27.88;68.71;100938.66;6127739;28;20085;-66
2023/08/19 09:10:01;;;;;;;10.95;7.25;;;;;;;28.06;69.26;100951.97;6123743;28;20047;-66
2023/08/19 09:13:00;;;;;;;9.52;7.35;;;;;;;28.34;67.46;100949.03;6124301;28;20118;-66
2023/08/19 09:15:55;;;;;;;10.00;6.93;;;;;;;28.36;68.56;100940.56;6123574;28;20043;-65
2023/08/19 09:18:51;;;;;;;10.40;7.63;;;;;;;28.43;69.65;100943.09;6123811;28;20052;-66
2023/08/19 09:21:46;;;;;;;13.07;7.40;;;;;;;28.34;67.93;100938.13;6122665;28;20033;-65
2023/08/19 09:24:42;;;;;;;8.97;6.43;;;;;;;28.34;67.99;100938.13;6128011;28;20392;-65
2023/08/19 09:27:38;;;;;;;9.75;7.40;;;;;;;28.47;66.95;100947.78;6133112;28;20039;-66
2023/08/19 09:30:34;;;;;;;11.60;6.90;;;;;;;28.92;67.37;100950.09;6148153;28;20036;-66
2023/08/19 09:33:30;;;;;;;9.55;7.15;;;;;;;29.33;63.38;100937.59;6123692;28;20053;-66
2023/08/19 09:36:26;;;;;;;10.57;6.85;;;;;;;29.46;62.39;100929.75;6123911;28;20035;-65
2023/08/19 09:39:25;;;;;;;14.10;7.15;;;;;;;30.23;63.33;100939.09;6122644;28;20032;-66
2023/08/19 09:42:21;;;;;;;9.73;6.97;;;;;;;30.54;61.30;100925.22;6123924;28;20041;-66
2023/08/19 09:45:18;;;;;;;9.13;6.55;;;;;;;31.13;59.46;100932.91;6124043;28;20528;-66
2023/08/19 09:48:14;;;;;;;9.88;6.18;;;;;;;30.86;58.30;100927.69;6122714;28;20056;-66
2023/08/19 09:51:21;;;;;;;13.45;7.15;;;;;;;30.91;58.52;100919.47;6123714;28;20104;-67
2023/08/19 09:54:17;;;;;;;8.98;6.47;;;;;;;31.09;58.08;100937.31;6128975;28;20472;-66
2023/08/19 09:57:12;;;;;;;8.30;7.05;;;;;;;30.65;56.79;100910.44;6118126;28;20031;-66
2023/08/19 10:00:09;;;;;;;9.67;7.40;;;;;;;30.96;59.91;100932.34;6127936;28;20047;-66
2023/08/19 10:03:05;;;;;;;8.60;7.05;;;;;;;31.01;57.26;100937.88;6127282;28;20134;-66
2023/08/19 10:06:01;;;;;;;9.45;7.40;;;;;;;30.93;58.01;100932.94;6121191;28;20047;-66
2023/08/19 10:09:04;;;;;;;9.85;6.82;;;;;;;30.96;59.07;100919.47;6124047;28;20466;-66
2023/08/19 10:11:59;;;;;;;8.75;6.00;;;;;;;30.89;56.70;100909.88;6122461;28;20040;-66
2023/08/19 10:14:57;;;;;;;9.33;6.60;;;;;;;31.02;56.77;100917.56;6120730;28;20036;-65
2023/08/19 10:17:54;;;;;;;11.25;7.50;;;;;;;31.39;56.17;100909.00;6123107;28;20259;-66
2023/08/19 10:20:53;;;;;;;11.35;7.60;;;;;;;31.08;57.58;100920.03;6121227;28;20039;-66
2023/08/19 10:23:48;;;;;;;7.80;6.45;;;;;;;31.24;55.96;100907.94;6120031;28;20365;-66
2023/08/19 10:26:50;;;;;;;8.57;6.38;;;;;;;31.29;56.30;100909.00;6120701;28;20054;-67
2023/08/19 10:29:46;;;;;;;10.60;7.22;;;;;;;31.23;56.93;100899.97;6116860;28;20032;-66
2023/08/19 10:32:41;;;;;;;11.13;7.10;;;;;;;30.94;56.46;100912.66;6116623;28;20035;-67
2023/08/19 10:35:56;;;;;;;8.93;6.93;;;;;;;30.95;56.10;100914.28;6119639;28;20475;-66
2023/08/19 10:38:54;;;;;;;9.48;6.18;;;;;;;31.23;54.89;100908.19;6122486;28;20031;-66
2023/08/19 10:41:50;;;;;;;7.75;5.93;;;;;;;31.53;53.71;100896.34;6121615;28;20143;-67
2023/08/19 10:44:45;;;;;;;10.33;5.47;;;;;;;32.05;51.47;100913.16;6118230;28;20106;-67
2023/08/19 10:47:41;;;;;;;8.10;5.73;;;;;;;31.43;51.11;100901.84;6130282;28;20398;-66
2023/08/19 10:50:37;;;;;;;8.68;5.25;;;;;;;31.49;51.18;100909.81;6137563;28;20039;-67
2023/08/19 10:53:33;;;;;;;8.07;5.68;;;;;;;31.52;52.18;100895.56;6121442;28;20024;-67
2023/08/19 10:56:29;;;;;;;8.48;6.13;;;;;;;31.74;51.28;100895.97;6117047;28;20036;-66
2023/08/19 10:59:25;;;;;;;11.50;6.13;;;;;;;31.99;52.83;100908.75;6116174;28;20048;-68
2023/08/19 11:02:20;;;;;;;8.52;5.55;;;;;;;31.89;49.67;100900.59;6122478;28;20310;-67
2023/08/19 11:05:26;;;;;;;9.77;5.95;;;;;;;31.80;51.36;100894.03;6120589;28;20028;-67
2023/08/19 11:08:22;;;;;;;6.82;5.38;;;;;;;32.08;50.66;100907.09;6122140;28;20056;-67
2023/08/19 11:11:17;;;;;;;7.28;5.13;;;;;;;31.98;49.54;100890.66;6121427;28;20425;-67
2023/08/19 11:14:17;;;;;;;5.73;4.60;;;;;;;32.44;47.70;100888.44;6120609;28;20028;-68
2023/08/19 11:17:12;;;;;;;8.43;5.10;;;;;;;32.51;47.31;100885.34;6120493;28;20285;-67
2023/08/19 11:20:11;;;;;;;8.43;5.10;;;;;;;32.27;47.25;100899.00;6121390;28;20393;-67
2023/08/19 11:23:06;;;;;;;8.10;4.88;;;;;;;32.37;47.29;100898.91;6121261;28;20028;-67
2023/08/19 11:26:02;;;;;;;7.88;5.50;;;;;;;32.08;48.27;100892.53;6120228;28;20049;-67
2023/08/19 11:28:58;;;;;;;9.35;5.20;;;;;;;32.11;47.68;100884.56;6121544;28;20097;-67
2023/08/19 11:31:53;;;;;;;8.00;4.68;;;;;;;32.34;47.16;100877.56;6119815;28;20064;-67
2023/08/19 11:34:49;;;;;;;7.30;4.88;;;;;;;32.42;48.25;100874.19;6118703;28;20025;-68
2023/08/19 11:37:44;;;;;;;6.57;4.83;;;;;;;32.62;46.77;100882.28;6123262;28;20546;-68
2023/08/19 11:40:41;;;;;;;8.98;4.80;;;;;;;32.73;46.56;100875.59;6127449;28;20099;-66
2023/08/19 11:43:45;;;;;;;7.40;4.90;;;;;;;32.71;44.11;100880.56;6120648;28;20028;-65
2023/08/19 11:46:41;;;;;;;6.13;4.18;;;;;;;33.04;44.44;100884.38;6120480;28;20107;-68
2023/08/19 11:49:36;;;;;;;8.40;4.47;;;;;;;33.33;43.94;100871.41;6133068;28;20032;-66
2023/08/19 11:52:34;;;;;;;8.27;4.67;;;;;;;33.28;43.44;100876.97;6122266;28;20037;-66
2023/08/19 11:55:29;;;;;;;9.15;3.97;;;;;;;32.99;42.12;100865.97;6116829;28;20063;-68
2023/08/19 11:58:38;;;;;;;9.20;4.43;;;;;;;33.42;42.41;100879.84;6118707;28;20453;-68
2023/08/19 12:01:35;;;;;;;7.07;4.43;;;;;;;33.52;42.35;100882.47;6118443;28;20039;-67
2023/08/19 12:04:33;;;;;;;6.75;4.15;;;;;;;33.89;41.51;100871.53;6119849;28;20032;-68
2023/08/19 12:07:29;;;;;;;5.85;3.55;;;;;;;34.14;39.68;100864.88;6120648;28;20034;-68
2023/08/19 12:10:38;;;;;;;6.00;4.00;;;;;;;33.76;40.92;100860.44;6120427;28;20040;-69
2023/08/19 12:13:33;;;;;;;7.65;4.28;;;;;;;33.34;41.95;100880.50;6120563;28;20063;-68
2023/08/19 12:16:28;;;;;;;8.13;4.27;;;;;;;33.55;41.54;100876.38;6121148;28;20090;-68
2023/08/19 12:19:24;;;;;;;8.38;4.28;;;;;;;33.24;41.29;100875.13;6120583;28;20483;-68
2023/08/19 12:22:19;;;;;;;7.50;4.00;;;;;;;33.09;41.02;100869.78;6120730;28;20040;-68
2023/08/19 12:25:15;;;;;;;6.03;3.65;;;;;;;32.97;41.33;100878.38;6119187;28;20056;-66
2023/08/19 12:28:10;;;;;;;8.20;4.57;;;;;;;32.70;40.82;100873.41;6130428;28;20383;-66
2023/08/19 12:31:05;;;;;;;5.72;3.90;;;;;;;32.76;40.79;100861.28;6139873;28;20040;-66
2023/08/19 12:34:02;;;;;;;5.50;3.20;;;;;;;33.35;40.29;100871.09;6133307;28;20162;-67
2023/08/19 12:36:57;;;;;;;6.70;4.65;;;;;;;33.14;40.90;100878.78;6125291;28;20035;-66
2023/08/19 12:39:52;;;;;;;9.00;4.68;;;;;;;33.27;41.45;100878.06;6135401;28;20048;-67
2023/08/19 12:42:51;;;;;;;8.87;4.33;;;;;;;33.60;40.84;100873.59;6125257;28;20499;-68
2023/08/19 12:45:46;;;;;;;5.55;4.03;;;;;;;33.89;40.66;100860.50;6125417;28;20029;-68
2023/08/19 12:48:42;;;;;;;6.70;3.87;;;;;;;33.64;40.50;100871.91;6123728;28;20435;-67
2023/08/19 12:51:38;;;;;;;6.40;3.53;;;;;;;33.29;40.32;100880.56;6122637;28;20396;-68
2023/08/19 12:54:33;;;;;;;7.18;4.80;;;;;;;33.32;39.90;100869.75;6124005;28;20040;-68
2023/08/19 12:57:28;;;;;;;8.53;5.67;;;;;;;32.88;40.11;100877.38;6113859;28;20040;-68
2023/08/19 13:00:26;;;;;;;11.38;6.13;;;;;;;32.54;40.72;100877.41;6121778;28;20028;-67
2023/08/19 13:03:21;;;;;;;7.47;3.92;;;;;;;32.71;40.70;100894.31;6123042;28;20028;-67
2023/08/19 13:06:17;;;;;;;10.63;3.78;;;;;;;32.84;40.90;100887.31;6126582;28;20388;-67
2023/08/19 13:09:12;;;;;;;7.93;4.90;;;;;;;32.81;41.06;100877.72;6124678;28;20036;-66
2023/08/19 13:12:08;;;;;;;7.00;4.23;;;;;;;32.77;41.34;100868.41;6123882;28;20043;-67
2023/08/19 13:15:04;;;;;;;7.45;4.30;;;;;;;32.92;41.03;100868.25;6121985;28;20438;-67
2023/08/19 13:17:59;;;;;;;9.38;3.92;;;;;;;32.88;41.76;100878.22;6121777;28;20032;-67
2023/08/19 13:20:55;;;;;;;8.20;4.07;;;;;;;33.08;40.87;100881.88;6137158;28;20036;-68